sensor_id;sensor_type;location;lat;lon;timestamp;temperature;humidity
15749;DHT22;7976;52.526;13.326;2024-01-11T00:00:31;-4.90;99.90
15749;DHT22;7976;52.526;13.326;2024-01-11T00:03:00;-5.00;99.90
15749;DHT22;7976;52.526;13.326;2024-01-11T00:05:27;-5.10;99.90
15749;DHT22;7976;52.526;13.326;2024-01-11T00:07:53;-5.10;99.90
15749;DHT22;7976;52.526;13.326;2024-01-11T00:10:20;-5.10;99.90
15749;DHT22;7976;52.526;13.326;2024-01-11T00:12:47;-5.10;99.90
15749;DHT22;7976;52.526;13.326;2024-01-11T00:15:14;-5.10;99.90
15749;DHT22;7976;52.526;13.326;2024-01-11T00:17:41;-5.20;99.90
15749;DHT22;7976;52.526;13.326;2024-01-11T00:20:10;-5.30;99.90
15749;DHT22;7976;52.526;13.326;2024-01-11T00:22:37;-5.30;99.90
15749;DHT22;7976;52.526;13.326;2024-01-11T00:25:04;-5.30;99.90
15749;DHT22;7976;52.526;13.326;2024-01-11T00:27:31;-5.30;99.90
15749;DHT22;7976;52.526;13.326;2024-01-11T00:29:58;-5.40;99.90
15749;DHT22;7976;52.526;13.326;2024-01-11T00:32:25;-5.40;99.90
15749;DHT22;7976;52.526;13.326;2024-01-11T00:34:52;-5.40;99.90
15749;DHT22;7976;52.526;13.326;2024-01-11T00:37:20;-5.40;99.90
15749;DHT22;7976;52.526;13.326;2024-01-11T00:39:47;-5.40;99.90
15749;DHT22;7976;52.526;13.326;2024-01-11T00:42:14;-5.40;99.90
15749;DHT22;7976;52.526;13.326;2024-01-11T00:44:41;-5.30;99.90
15749;DHT22;7976;52.526;13.326;2024-01-11T00:47:10;-5.40;99.90
15749;DHT22;7976;52.526;13.326;2024-01-11T00:49:37;-5.40;99.90
15749;DHT22;7976;52.526;13.326;2024-01-11T00:52:04;-5.40;99.90
15749;DHT22;7976;52.526;13.326;2024-01-11T00:54:32;-5.50;99.90
15749;DHT22;7976;52.526;13.326;2024-01-11T00:56:59;-5.40;99.90
15749;DHT22;7976;52.526;13.326;2024-01-11T00:59:26;-5.50;99.90
15749;DHT22;7976;52.526;13.326;2024-01-11T01:01:53;-5.50;99.90
15749;DHT22;7976;52.526;13.326;2024-01-11T01:04:20;-5.50;99.90
15749;DHT22;7976;52.526;13.326;2024-01-11T01:06:46;-5.50;99.90
15749;DHT22;7976;52.526;13.326;2024-01-11T01:09:13;-5.50;99.90
15749;DHT22;7976;52.526;13.326;2024-01-11T01:11:41;-5.50;99.90
15749;DHT22;7976;52.526;13.326;2024-01-11T01:14:08;-5.40;99.90
15749;DHT22;7976;52.526;13.326;2024-01-11T01:16:35;-5.40;99.90
15749;DHT22;7976;52.526;13.326;2024-01-11T01:19:02;-5.40;99.90
15749;DHT22;7976;52.526;13.326;2024-01-11T01:21:29;-5.40;99.90
15749;DHT22;7976;52.526;13.326;2024-01-11T01:23:56;-5.30;99.90
15749;DHT22;7976;52.526;13.326;2024-01-11T01:26:23;-5.30;99.90
15749;DHT22;7976;52.526;13.326;2024-01-11T01:28:51;-5.30;99.90
15749;DHT22;7976;52.526;13.326;2024-01-11T01:31:17;-5.30;99.90
15749;DHT22;7976;52.526;13.326;2024-01-11T01:33:44;-5.40;99.90
15749;DHT22;7976;52.526;13.326;2024-01-11T01:36:12;-5.30;99.90
15749;DHT22;7976;52.526;13.326;2024-01-11T01:38:39;-5.40;99.90
15749;DHT22;7976;52.526;13.326;2024-01-11T01:41:06;-5.30;99.90
15749;DHT22;7976;52.526;13.326;2024-01-11T01:43:33;-5.40;99.90
15749;DHT22;7976;52.526;13.326;2024-01-11T01:46:02;-5.30;99.90
15749;DHT22;7976;52.526;13.326;2024-01-11T01:48:32;-5.30;99.90
15749;DHT22;7976;52.526;13.326;2024-01-11T01:50:59;-5.30;99.90
15749;DHT22;7976;52.526;13.326;2024-01-11T01:53:27;-5.30;99.90
15749;DHT22;7976;52.526;13.326;2024-01-11T01:55:55;-5.30;99.90
15749;DHT22;7976;52.526;13.326;2024-01-11T01:58:22;-5.20;99.90
15749;DHT22;7976;52.526;13.326;2024-01-11T02:00:50;-5.30;99.90
15749;DHT22;7976;52.526;13.326;2024-01-11T02:03:20;-5.20;99.90
15749;DHT22;7976;52.526;13.326;2024-01-11T02:05:47;-5.20;99.90
15749;DHT22;7976;52.526;13.326;2024-01-11T02:08:17;-5.10;99.90
15749;DHT22;7976;52.526;13.326;2024-01-11T02:10:48;-5.10;99.90
15749;DHT22;7976;52.526;13.326;2024-01-11T02:13:15;-5.00;99.90
15749;DHT22;7976;52.526;13.326;2024-01-11T02:15:43;-5.10;99.90
15749;DHT22;7976;52.526;13.326;2024-01-11T02:18:11;-5.10;99.90
15749;DHT22;7976;52.526;13.326;2024-01-11T02:20:39;-5.20;99.90
15749;DHT22;7976;52.526;13.326;2024-01-11T02:23:10;-5.10;99.90
15749;DHT22;7976;52.526;13.326;2024-01-11T02:25:41;-5.20;99.90
15749;DHT22;7976;52.526;13.326;2024-01-11T02:28:08;-5.20;99.90
15749;DHT22;7976;52.526;13.326;2024-01-11T02:30:34;-5.20;99.90
15749;DHT22;7976;52.526;13.326;2024-01-11T02:33:01;-5.20;99.90
15749;DHT22;7976;52.526;13.326;2024-01-11T02:35:30;-5.20;99.90
15749;DHT22;7976;52.526;13.326;2024-01-11T02:37:58;-5.20;99.90
15749;DHT22;7976;52.526;13.326;2024-01-11T02:40:27;-5.20;99.90
15749;DHT22;7976;52.526;13.326;2024-01-11T02:42:57;-5.20;99.90
15749;DHT22;7976;52.526;13.326;2024-01-11T02:45:23;-5.20;99.90
15749;DHT22;7976;52.526;13.326;2024-01-11T02:47:50;-5.20;99.90
15749;DHT22;7976;52.526;13.326;2024-01-11T02:50:17;-5.20;99.90
15749;DHT22;7976;52.526;13.326;2024-01-11T02:52:44;-5.20;99.90
15749;DHT22;7976;52.526;13.326;2024-01-11T02:55:11;-5.10;99.90
15749;DHT22;7976;52.526;13.326;2024-01-11T02:57:37;-5.20;99.90
15749;DHT22;7976;52.526;13.326;2024-01-11T03:00:07;-5.20;99.90
15749;DHT22;7976;52.526;13.326;2024-01-11T03:02:34;-5.20;99.90
15749;DHT22;7976;52.526;13.326;2024-01-11T03:05:01;-5.20;99.90
15749;DHT22;7976;52.526;13.326;2024-01-11T03:07:28;-5.20;99.90
15749;DHT22;7976;52.526;13.326;2024-01-11T03:09:55;-5.10;99.90
15749;DHT22;7976;52.526;13.326;2024-01-11T03:12:22;-5.10;99.90
15749;DHT22;7976;52.526;13.326;2024-01-11T03:14:51;-5.20;99.90
15749;DHT22;7976;52.526;13.326;2024-01-11T03:17:19;-5.20;99.90
15749;DHT22;7976;52.526;13.326;2024-01-11T03:19:46;-5.30;99.90
15749;DHT22;7976;52.526;13.326;2024-01-11T03:22:13;-5.30;99.90
15749;DHT22;7976;52.526;13.326;2024-01-11T03:24:40;-5.30;99.90
15749;DHT22;7976;52.526;13.326;2024-01-11T03:27:07;-5.30;99.90
15749;DHT22;7976;52.526;13.326;2024-01-11T03:29:34;-5.30;99.90
15749;DHT22;7976;52.526;13.326;2024-01-11T03:32:00;-5.30;99.90
15749;DHT22;7976;52.526;13.326;2024-01-11T03:34:28;-5.30;99.90
15749;DHT22;7976;52.526;13.326;2024-01-11T03:36:55;-5.30;99.90
15749;DHT22;7976;52.526;13.326;2024-01-11T03:39:23;-5.30;99.90
15749;DHT22;7976;52.526;13.326;2024-01-11T03:41:51;-5.20;99.90
15749;DHT22;7976;52.526;13.326;2024-01-11T03:44:18;-5.20;99.90
15749;DHT22;7976;52.526;13.326;2024-01-11T03:46:45;-5.10;99.90
15749;DHT22;7976;52.526;13.326;2024-01-11T03:49:12;-5.10;99.90
15749;DHT22;7976;52.526;13.326;2024-01-11T03:51:40;-5.10;99.90
15749;DHT22;7976;52.526;13.326;2024-01-11T03:54:07;-5.00;99.90
15749;DHT22;7976;52.526;13.326;2024-01-11T03:56:35;-5.00;99.90
15749;DHT22;7976;52.526;13.326;2024-01-11T03:59:04;-4.90;99.90
15749;DHT22;7976;52.526;13.326;2024-01-11T04:01:32;-4.90;99.90
15749;DHT22;7976;52.526;13.326;2024-01-11T04:04:00;-4.80;99.90
15749;DHT22;7976;52.526;13.326;2024-01-11T04:06:27;-4.80;99.90
15749;DHT22;7976;52.526;13.326;2024-01-11T04:08:55;-4.70;99.90
15749;DHT22;7976;52.526;13.326;2024-01-11T04:11:22;-4.60;99.90
15749;DHT22;7976;52.526;13.326;2024-01-11T04:13:49;-4.60;99.90
15749;DHT22;7976;52.526;13.326;2024-01-11T04:16:16;-4.60;99.90
15749;DHT22;7976;52.526;13.326;2024-01-11T04:18:43;-4.50;99.90
15749;DHT22;7976;52.526;13.326;2024-01-11T04:21:20;-4.50;99.90
15749;DHT22;7976;52.526;13.326;2024-01-11T04:23:48;-4.50;99.90
15749;DHT22;7976;52.526;13.326;2024-01-11T04:26:16;-4.40;99.90
15749;DHT22;7976;52.526;13.326;2024-01-11T04:28:44;-4.40;99.90
15749;DHT22;7976;52.526;13.326;2024-01-11T04:31:11;-4.30;99.90
15749;DHT22;7976;52.526;13.326;2024-01-11T04:33:40;-4.30;99.90
15749;DHT22;7976;52.526;13.326;2024-01-11T04:36:07;-4.20;99.90
15749;DHT22;7976;52.526;13.326;2024-01-11T04:38:34;-4.20;99.90
15749;DHT22;7976;52.526;13.326;2024-01-11T04:41:01;-4.20;99.90
15749;DHT22;7976;52.526;13.326;2024-01-11T04:43:30;-4.10;99.90
15749;DHT22;7976;52.526;13.326;2024-01-11T04:45:56;-4.10;99.90
15749;DHT22;7976;52.526;13.326;2024-01-11T04:48:23;-4.00;99.90
15749;DHT22;7976;52.526;13.326;2024-01-11T04:50:50;-4.00;99.90
15749;DHT22;7976;52.526;13.326;2024-01-11T04:53:17;-3.90;99.90
15749;DHT22;7976;52.526;13.326;2024-01-11T04:55:44;-3.90;99.90
15749;DHT22;7976;52.526;13.326;2024-01-11T04:58:11;-3.90;99.90
15749;DHT22;7976;52.526;13.326;2024-01-11T05:00:39;-3.90;99.90
15749;DHT22;7976;52.526;13.326;2024-01-11T05:03:06;-3.90;99.90
15749;DHT22;7976;52.526;13.326;2024-01-11T05:05:33;-3.80;99.90
15749;DHT22;7976;52.526;13.326;2024-01-11T05:08:01;-3.80;99.90
15749;DHT22;7976;52.526;13.326;2024-01-11T05:10:28;-3.80;99.90
15749;DHT22;7976;52.526;13.326;2024-01-11T05:12:55;-3.80;99.90
15749;DHT22;7976;52.526;13.326;2024-01-11T05:15:22;-3.80;99.90
15749;DHT22;7976;52.526;13.326;2024-01-11T05:17:51;-3.80;99.90
15749;DHT22;7976;52.526;13.326;2024-01-11T05:20:17;-3.70;99.90
15749;DHT22;7976;52.526;13.326;2024-01-11T05:22:44;-3.70;99.90
15749;DHT22;7976;52.526;13.326;2024-01-11T05:25:11;-3.60;99.90
15749;DHT22;7976;52.526;13.326;2024-01-11T05:27:38;-3.60;99.90
15749;DHT22;7976;52.526;13.326;2024-01-11T05:30:06;-3.50;99.90
15749;DHT22;7976;52.526;13.326;2024-01-11T05:32:33;-3.50;99.90
15749;DHT22;7976;52.526;13.326;2024-01-11T05:35:02;-3.50;99.90
15749;DHT22;7976;52.526;13.326;2024-01-11T05:37:29;-3.40;99.90
15749;DHT22;7976;52.526;13.326;2024-01-11T05:39:55;-3.40;99.90
15749;DHT22;7976;52.526;13.326;2024-01-11T05:42:23;-3.40;99.90
15749;DHT22;7976;52.526;13.326;2024-01-11T05:44:51;-3.40;99.90
15749;DHT22;7976;52.526;13.326;2024-01-11T05:47:18;-3.30;99.90
15749;DHT22;7976;52.526;13.326;2024-01-11T05:49:45;-3.30;99.90
15749;DHT22;7976;52.526;13.326;2024-01-11T05:52:14;-3.30;99.90
15749;DHT22;7976;52.526;13.326;2024-01-11T05:54:41;-3.30;99.90
15749;DHT22;7976;52.526;13.326;2024-01-11T05:57:08;-3.30;99.90
15749;DHT22;7976;52.526;13.326;2024-01-11T05:59:35;-3.30;99.90
15749;DHT22;7976;52.526;13.326;2024-01-11T06:02:02;-3.20;99.90
15749;DHT22;7976;52.526;13.326;2024-01-11T06:04:29;-3.20;99.90
15749;DHT22;7976;52.526;13.326;2024-01-11T06:06:58;-3.20;99.90
15749;DHT22;7976;52.526;13.326;2024-01-11T06:09:26;-3.20;99.90
15749;DHT22;7976;52.526;13.326;2024-01-11T06:11:53;-3.20;99.90
15749;DHT22;7976;52.526;13.326;2024-01-11T06:14:20;-3.10;99.90
15749;DHT22;7976;52.526;13.326;2024-01-11T06:16:47;-3.10;99.90
15749;DHT22;7976;52.526;13.326;2024-01-11T06:19:14;-3.10;99.90
15749;DHT22;7976;52.526;13.326;2024-01-11T06:21:40;-3.10;99.90
15749;DHT22;7976;52.526;13.326;2024-01-11T06:24:07;-3.00;99.90
15749;DHT22;7976;52.526;13.326;2024-01-11T06:26:35;-3.00;99.90
15749;DHT22;7976;52.526;13.326;2024-01-11T06:29:02;-3.00;99.90
15749;DHT22;7976;52.526;13.326;2024-01-11T06:31:29;-3.00;99.90
15749;DHT22;7976;52.526;13.326;2024-01-11T06:33:56;-3.00;99.90
15749;DHT22;7976;52.526;13.326;2024-01-11T06:36:23;-3.00;99.90
15749;DHT22;7976;52.526;13.326;2024-01-11T06:38:49;-2.90;99.90
15749;DHT22;7976;52.526;13.326;2024-01-11T06:41:16;-2.90;99.90
15749;DHT22;7976;52.526;13.326;2024-01-11T06:43:45;-2.90;99.90
15749;DHT22;7976;52.526;13.326;2024-01-11T06:46:12;-2.90;99.90
15749;DHT22;7976;52.526;13.326;2024-01-11T06:48:39;-2.90;99.90
15749;DHT22;7976;52.526;13.326;2024-01-11T06:51:06;-2.90;99.90
15749;DHT22;7976;52.526;13.326;2024-01-11T06:53:33;-2.80;99.90
15749;DHT22;7976;52.526;13.326;2024-01-11T06:56:04;-2.80;99.90
15749;DHT22;7976;52.526;13.326;2024-01-11T06:58:39;-2.80;99.90
15749;DHT22;7976;52.526;13.326;2024-01-11T07:01:08;-2.80;99.90
15749;DHT22;7976;52.526;13.326;2024-01-11T07:03:35;-2.70;99.90
15749;DHT22;7976;52.526;13.326;2024-01-11T07:06:02;-2.70;99.90
15749;DHT22;7976;52.526;13.326;2024-01-11T07:08:29;-2.70;99.90
15749;DHT22;7976;52.526;13.326;2024-01-11T07:10:56;-2.70;99.90
15749;DHT22;7976;52.526;13.326;2024-01-11T07:13:23;-2.60;99.90
15749;DHT22;7976;52.526;13.326;2024-01-11T07:15:50;-2.60;99.90
15749;DHT22;7976;52.526;13.326;2024-01-11T07:18:19;-2.60;99.90
15749;DHT22;7976;52.526;13.326;2024-01-11T07:20:46;-2.60;99.90
15749;DHT22;7976;52.526;13.326;2024-01-11T07:23:13;-2.50;99.90
15749;DHT22;7976;52.526;13.326;2024-01-11T07:25:40;-2.50;99.90
15749;DHT22;7976;52.526;13.326;2024-01-11T07:28:07;-2.50;99.90
15749;DHT22;7976;52.526;13.326;2024-01-11T07:30:34;-2.50;99.90
15749;DHT22;7976;52.526;13.326;2024-01-11T07:33:01;-2.50;99.90
15749;DHT22;7976;52.526;13.326;2024-01-11T07:35:31;-2.50;99.90
15749;DHT22;7976;52.526;13.326;2024-01-11T07:38:01;-2.50;99.90
15749;DHT22;7976;52.526;13.326;2024-01-11T07:40:28;-2.40;99.90
15749;DHT22;7976;52.526;13.326;2024-01-11T07:42:55;-2.40;99.90
15749;DHT22;7976;52.526;13.326;2024-01-11T07:45:22;-2.40;99.90
15749;DHT22;7976;52.526;13.326;2024-01-11T07:47:50;-2.40;99.90
15749;DHT22;7976;52.526;13.326;2024-01-11T07:50:16;-2.40;99.90
15749;DHT22;7976;52.526;13.326;2024-01-11T07:52:45;-2.30;99.90
15749;DHT22;7976;52.526;13.326;2024-01-11T07:55:12;-2.30;99.90
15749;DHT22;7976;52.526;13.326;2024-01-11T07:57:39;-2.30;99.90
15749;DHT22;7976;52.526;13.326;2024-01-11T08:00:08;-2.30;99.90
15749;DHT22;7976;52.526;13.326;2024-01-11T08:02:38;-2.30;99.90
15749;DHT22;7976;52.526;13.326;2024-01-11T08:05:06;-2.30;99.90
15749;DHT22;7976;52.526;13.326;2024-01-11T08:07:34;-2.30;99.90
15749;DHT22;7976;52.526;13.326;2024-01-11T08:10:07;-2.30;99.90
15749;DHT22;7976;52.526;13.326;2024-01-11T08:12:34;-2.40;99.90
15749;DHT22;7976;52.526;13.326;2024-01-11T08:15:02;-2.40;99.90
15749;DHT22;7976;52.526;13.326;2024-01-11T08:17:30;-2.40;99.90
15749;DHT22;7976;52.526;13.326;2024-01-11T08:19:57;-2.40;99.90
15749;DHT22;7976;52.526;13.326;2024-01-11T08:22:26;-2.40;99.90
15749;DHT22;7976;52.526;13.326;2024-01-11T08:24:59;-2.40;99.90
15749;DHT22;7976;52.526;13.326;2024-01-11T08:27:27;-2.40;99.90
15749;DHT22;7976;52.526;13.326;2024-01-11T08:29:54;-2.40;99.90
15749;DHT22;7976;52.526;13.326;2024-01-11T08:32:21;-2.40;99.90
15749;DHT22;7976;52.526;13.326;2024-01-11T08:34:51;-2.30;99.90
15749;DHT22;7976;52.526;13.326;2024-01-11T08:37:19;-2.30;99.90
15749;DHT22;7976;52.526;13.326;2024-01-11T08:39:48;-2.30;99.90
15749;DHT22;7976;52.526;13.326;2024-01-11T08:42:19;-2.30;99.90
15749;DHT22;7976;52.526;13.326;2024-01-11T08:44:48;-2.30;99.90
15749;DHT22;7976;52.526;13.326;2024-01-11T08:47:15;-2.20;99.90
15749;DHT22;7976;52.526;13.326;2024-01-11T08:49:42;-2.20;99.90
15749;DHT22;7976;52.526;13.326;2024-01-11T08:52:14;-2.20;99.90
15749;DHT22;7976;52.526;13.326;2024-01-11T08:54:41;-2.20;99.90
15749;DHT22;7976;52.526;13.326;2024-01-11T08:57:10;-2.10;99.90
15749;DHT22;7976;52.526;13.326;2024-01-11T08:59:37;-2.00;99.90
15749;DHT22;7976;52.526;13.326;2024-01-11T09:02:06;-2.00;99.90
15749;DHT22;7976;52.526;13.326;2024-01-11T09:04:33;-1.90;99.90
15749;DHT22;7976;52.526;13.326;2024-01-11T09:07:00;-1.80;99.90
15749;DHT22;7976;52.526;13.326;2024-01-11T09:09:27;-1.80;99.90
15749;DHT22;7976;52.526;13.326;2024-01-11T09:11:57;-1.70;99.90
15749;DHT22;7976;52.526;13.326;2024-01-11T09:14:24;-1.70;99.90
15749;DHT22;7976;52.526;13.326;2024-01-11T09:16:51;-1.60;99.90
15749;DHT22;7976;52.526;13.326;2024-01-11T09:19:20;-1.60;99.90
15749;DHT22;7976;52.526;13.326;2024-01-11T09:21:50;-1.50;99.90
15749;DHT22;7976;52.526;13.326;2024-01-11T09:24:17;-1.50;99.90
15749;DHT22;7976;52.526;13.326;2024-01-11T09:26:51;-1.60;99.90
15749;DHT22;7976;52.526;13.326;2024-01-11T09:29:21;-1.60;99.90
15749;DHT22;7976;52.526;13.326;2024-01-11T09:31:51;-1.60;99.90
15749;DHT22;7976;52.526;13.326;2024-01-11T09:34:22;-1.60;99.90
15749;DHT22;7976;52.526;13.326;2024-01-11T09:36:49;-1.60;99.90
15749;DHT22;7976;52.526;13.326;2024-01-11T09:39:20;-1.60;99.90
15749;DHT22;7976;52.526;13.326;2024-01-11T09:41:56;-1.60;99.90
15749;DHT22;7976;52.526;13.326;2024-01-11T09:44:25;-1.60;99.90
15749;DHT22;7976;52.526;13.326;2024-01-11T09:46:53;-1.50;99.90
15749;DHT22;7976;52.526;13.326;2024-01-11T09:49:23;-1.50;99.90
15749;DHT22;7976;52.526;13.326;2024-01-11T09:51:51;-1.50;99.90
15749;DHT22;7976;52.526;13.326;2024-01-11T09:54:23;-1.50;99.90
15749;DHT22;7976;52.526;13.326;2024-01-11T09:56:53;-1.50;99.90
15749;DHT22;7976;52.526;13.326;2024-01-11T09:59:21;-1.50;99.90
15749;DHT22;7976;52.526;13.326;2024-01-11T10:01:51;-1.50;99.90
15749;DHT22;7976;52.526;13.326;2024-01-11T10:04:18;-1.50;99.90
15749;DHT22;7976;52.526;13.326;2024-01-11T10:06:46;-1.50;99.90
15749;DHT22;7976;52.526;13.326;2024-01-11T10:09:17;-1.50;99.90
15749;DHT22;7976;52.526;13.326;2024-01-11T10:11:45;-1.40;99.90
15749;DHT22;7976;52.526;13.326;2024-01-11T10:14:14;-1.40;99.90
15749;DHT22;7976;52.526;13.326;2024-01-11T10:16:44;-1.40;99.90
15749;DHT22;7976;52.526;13.326;2024-01-11T10:19:12;-1.40;99.90
15749;DHT22;7976;52.526;13.326;2024-01-11T10:21:42;-1.30;99.90
15749;DHT22;7976;52.526;13.326;2024-01-11T10:24:10;-1.20;99.90
15749;DHT22;7976;52.526;13.326;2024-01-11T10:26:45;-1.20;99.90
15749;DHT22;7976;52.526;13.326;2024-01-11T10:29:12;-1.20;99.90
15749;DHT22;7976;52.526;13.326;2024-01-11T10:31:47;-1.20;99.90
15749;DHT22;7976;52.526;13.326;2024-01-11T10:34:15;-1.20;99.90
15749;DHT22;7976;52.526;13.326;2024-01-11T10:36:42;-1.20;99.90
15749;DHT22;7976;52.526;13.326;2024-01-11T10:39:14;-1.20;99.90
15749;DHT22;7976;52.526;13.326;2024-01-11T10:41:47;-1.20;99.90
15749;DHT22;7976;52.526;13.326;2024-01-11T10:44:22;-1.20;99.90
15749;DHT22;7976;52.526;13.326;2024-01-11T10:46:50;-1.30;99.90
15749;DHT22;7976;52.526;13.326;2024-01-11T10:49:22;-1.30;99.90
15749;DHT22;7976;52.526;13.326;2024-01-11T10:51:58;-1.30;99.90
15749;DHT22;7976;52.526;13.326;2024-01-11T10:54:28;-1.30;99.90
15749;DHT22;7976;52.526;13.326;2024-01-11T10:57:00;-1.30;99.90
15749;DHT22;7976;52.526;13.326;2024-01-11T10:59:31;-1.20;99.90
15749;DHT22;7976;52.526;13.326;2024-01-11T11:02:04;-1.20;99.90
15749;DHT22;7976;52.526;13.326;2024-01-11T11:04:36;-1.10;99.90
15749;DHT22;7976;52.526;13.326;2024-01-11T11:07:05;-1.10;99.90
15749;DHT22;7976;52.526;13.326;2024-01-11T11:09:35;-1.10;99.90
15749;DHT22;7976;52.526;13.326;2024-01-11T11:12:09;-1.10;99.90
15749;DHT22;7976;52.526;13.326;2024-01-11T11:14:42;-1.10;99.90
15749;DHT22;7976;52.526;13.326;2024-01-11T11:17:14;-1.20;99.90
15749;DHT22;7976;52.526;13.326;2024-01-11T11:19:42;-1.20;99.90
15749;DHT22;7976;52.526;13.326;2024-01-11T11:22:09;-1.20;99.90
15749;DHT22;7976;52.526;13.326;2024-01-11T11:24:40;-1.20;99.90
15749;DHT22;7976;52.526;13.326;2024-01-11T11:27:07;-1.10;99.90
15749;DHT22;7976;52.526;13.326;2024-01-11T11:29:34;-1.10;99.90
15749;DHT22;7976;52.526;13.326;2024-01-11T11:32:11;-1.00;99.90
15749;DHT22;7976;52.526;13.326;2024-01-11T11:34:42;-1.00;99.90
15749;DHT22;7976;52.526;13.326;2024-01-11T11:37:10;-0.90;99.90
15749;DHT22;7976;52.526;13.326;2024-01-11T11:39:37;-0.90;99.90
15749;DHT22;7976;52.526;13.326;2024-01-11T11:42:09;-0.90;99.90
15749;DHT22;7976;52.526;13.326;2024-01-11T11:44:48;-0.90;99.90
15749;DHT22;7976;52.526;13.326;2024-01-11T11:47:19;-0.90;99.90
15749;DHT22;7976;52.526;13.326;2024-01-11T11:49:58;-0.90;99.90
15749;DHT22;7976;52.526;13.326;2024-01-11T11:52:31;-0.80;99.90
15749;DHT22;7976;52.526;13.326;2024-01-11T11:55:02;-0.80;99.90
15749;DHT22;7976;52.526;13.326;2024-01-11T11:57:30;-0.70;99.90
15749;DHT22;7976;52.526;13.326;2024-01-11T11:59:58;-0.70;99.90
15749;DHT22;7976;52.526;13.326;2024-01-11T12:02:26;-0.60;99.90
15749;DHT22;7976;52.526;13.326;2024-01-11T12:04:53;-0.60;99.90
15749;DHT22;7976;52.526;13.326;2024-01-11T12:07:21;-0.60;99.90
15749;DHT22;7976;52.526;13.326;2024-01-11T12:09:50;-0.60;99.90
15749;DHT22;7976;52.526;13.326;2024-01-11T12:12:19;-0.50;99.90
15749;DHT22;7976;52.526;13.326;2024-01-11T12:14:46;-0.50;99.90
15749;DHT22;7976;52.526;13.326;2024-01-11T12:17:14;-0.50;99.90
15749;DHT22;7976;52.526;13.326;2024-01-11T12:19:41;-0.50;99.90
15749;DHT22;7976;52.526;13.326;2024-01-11T12:22:08;-0.40;99.90
15749;DHT22;7976;52.526;13.326;2024-01-11T12:24:35;-0.40;99.90
15749;DHT22;7976;52.526;13.326;2024-01-11T12:27:03;-0.40;99.90
15749;DHT22;7976;52.526;13.326;2024-01-11T12:29:31;-0.40;99.90
15749;DHT22;7976;52.526;13.326;2024-01-11T12:31:59;-0.40;99.90
15749;DHT22;7976;52.526;13.326;2024-01-11T12:34:28;-0.40;99.90
15749;DHT22;7976;52.526;13.326;2024-01-11T12:36:55;-0.30;99.90
15749;DHT22;7976;52.526;13.326;2024-01-11T12:39:26;-0.30;99.90
15749;DHT22;7976;52.526;13.326;2024-01-11T12:41:54;-0.30;99.90
15749;DHT22;7976;52.526;13.326;2024-01-11T12:44:23;-0.30;99.90
15749;DHT22;7976;52.526;13.326;2024-01-11T12:46:51;-0.30;99.90
15749;DHT22;7976;52.526;13.326;2024-01-11T12:49:18;-0.30;99.90
15749;DHT22;7976;52.526;13.326;2024-01-11T12:51:45;-0.30;99.90
15749;DHT22;7976;52.526;13.326;2024-01-11T12:54:13;-0.30;99.90
15749;DHT22;7976;52.526;13.326;2024-01-11T12:56:41;-0.30;99.90
15749;DHT22;7976;52.526;13.326;2024-01-11T12:59:09;-0.20;99.90
15749;DHT22;7976;52.526;13.326;2024-01-11T13:01:38;-0.20;99.90
15749;DHT22;7976;52.526;13.326;2024-01-11T13:04:08;-0.20;99.90
15749;DHT22;7976;52.526;13.326;2024-01-11T13:06:35;-0.20;99.90
15749;DHT22;7976;52.526;13.326;2024-01-11T13:09:02;-0.20;99.90
15749;DHT22;7976;52.526;13.326;2024-01-11T13:11:29;-0.10;99.90
15749;DHT22;7976;52.526;13.326;2024-01-11T13:13:57;-0.10;99.90
15749;DHT22;7976;52.526;13.326;2024-01-11T13:16:26;-0.20;99.90
15749;DHT22;7976;52.526;13.326;2024-01-11T13:18:54;-0.20;99.90
15749;DHT22;7976;52.526;13.326;2024-01-11T13:21:23;-0.10;99.90
15749;DHT22;7976;52.526;13.326;2024-01-11T13:23:50;-0.10;99.90
15749;DHT22;7976;52.526;13.326;2024-01-11T13:26:17;-0.10;99.90
15749;DHT22;7976;52.526;13.326;2024-01-11T13:31:39;-0.10;99.90
15749;DHT22;7976;52.526;13.326;2024-01-11T13:34:06;-0.10;99.90
15749;DHT22;7976;52.526;13.326;2024-01-11T13:36:35;-0.10;99.90
15749;DHT22;7976;52.526;13.326;2024-01-11T13:39:01;-0.10;99.90
15749;DHT22;7976;52.526;13.326;2024-01-11T13:41:29;-0.10;99.90
15749;DHT22;7976;52.526;13.326;2024-01-11T13:43:55;-0.10;99.90
15749;DHT22;7976;52.526;13.326;2024-01-11T13:46:22;-0.10;99.90
15749;DHT22;7976;52.526;13.326;2024-01-11T13:48:49;-0.10;99.90
15749;DHT22;7976;52.526;13.326;2024-01-11T13:51:17;-0.20;99.90
15749;DHT22;7976;52.526;13.326;2024-01-11T13:53:45;-0.20;99.90
15749;DHT22;7976;52.526;13.326;2024-01-11T13:56:12;-0.20;99.90
15749;DHT22;7976;52.526;13.326;2024-01-11T13:58:39;-0.20;99.90
15749;DHT22;7976;52.526;13.326;2024-01-11T14:01:05;-0.20;99.90
15749;DHT22;7976;52.526;13.326;2024-01-11T14:03:33;-0.20;99.90
15749;DHT22;7976;52.526;13.326;2024-01-11T14:06:00;-0.20;99.90
15749;DHT22;7976;52.526;13.326;2024-01-11T14:08:29;-0.20;99.90
15749;DHT22;7976;52.526;13.326;2024-01-11T14:10:57;-0.20;99.90
15749;DHT22;7976;52.526;13.326;2024-01-11T14:13:25;-0.20;99.90
15749;DHT22;7976;52.526;13.326;2024-01-11T14:15:52;-0.20;99.90
15749;DHT22;7976;52.526;13.326;2024-01-11T14:18:19;-0.20;99.90
15749;DHT22;7976;52.526;13.326;2024-01-11T14:20:46;-0.20;99.90
15749;DHT22;7976;52.526;13.326;2024-01-11T14:23:13;-0.20;99.90
15749;DHT22;7976;52.526;13.326;2024-01-11T14:25:41;-0.20;99.90
15749;DHT22;7976;52.526;13.326;2024-01-11T14:28:09;-0.20;99.90
15749;DHT22;7976;52.526;13.326;2024-01-11T14:30:36;-0.20;99.90
15749;DHT22;7976;52.526;13.326;2024-01-11T14:33:03;-0.20;99.90
15749;DHT22;7976;52.526;13.326;2024-01-11T14:35:30;-0.20;99.90
15749;DHT22;7976;52.526;13.326;2024-01-11T14:37:57;-0.20;99.90
15749;DHT22;7976;52.526;13.326;2024-01-11T14:40:24;-0.20;99.90
15749;DHT22;7976;52.526;13.326;2024-01-11T14:42:51;-0.20;99.90
15749;DHT22;7976;52.526;13.326;2024-01-11T14:45:19;-0.20;99.90
15749;DHT22;7976;52.526;13.326;2024-01-11T14:47:46;-0.20;99.90
15749;DHT22;7976;52.526;13.326;2024-01-11T14:50:13;-0.30;99.90
15749;DHT22;7976;52.526;13.326;2024-01-11T14:52:40;-0.30;99.90
15749;DHT22;7976;52.526;13.326;2024-01-11T14:55:08;-0.30;99.90
15749;DHT22;7976;52.526;13.326;2024-01-11T14:57:36;-0.30;99.90
15749;DHT22;7976;52.526;13.326;2024-01-11T15:00:06;-0.30;99.90
15749;DHT22;7976;52.526;13.326;2024-01-11T15:02:36;-0.30;99.90
15749;DHT22;7976;52.526;13.326;2024-01-11T15:05:04;-0.30;99.90
15749;DHT22;7976;52.526;13.326;2024-01-11T15:07:31;-0.30;99.90
15749;DHT22;7976;52.526;13.326;2024-01-11T15:09:59;-0.20;99.90
15749;DHT22;7976;52.526;13.326;2024-01-11T15:12:25;-0.20;99.90
15749;DHT22;7976;52.526;13.326;2024-01-11T15:14:52;-0.20;99.90
15749;DHT22;7976;52.526;13.326;2024-01-11T15:17:19;-0.20;99.90
15749;DHT22;7976;52.526;13.326;2024-01-11T15:19:47;-0.20;99.90
15749;DHT22;7976;52.526;13.326;2024-01-11T15:22:14;-0.20;99.90
15749;DHT22;7976;52.526;13.326;2024-01-11T15:24:41;-0.20;99.90
15749;DHT22;7976;52.526;13.326;2024-01-11T15:27:09;-0.20;99.90
15749;DHT22;7976;52.526;13.326;2024-01-11T15:29:36;-0.20;99.90
15749;DHT22;7976;52.526;13.326;2024-01-11T15:32:03;-0.20;99.90
15749;DHT22;7976;52.526;13.326;2024-01-11T15:34:30;-0.20;99.90
15749;DHT22;7976;52.526;13.326;2024-01-11T15:36:59;-0.20;99.90